sensor_id;sensor_type;location;lat;lon;timestamp;temperature;humidity
12893;DHT22;6514;48.606;9.222;2023-05-16T00:01:58;9.70;99.90
12893;DHT22;6514;48.606;9.222;2023-05-16T00:04:24;9.60;99.90
12893;DHT22;6514;48.606;9.222;2023-05-16T00:06:51;9.60;99.90
12893;DHT22;6514;48.606;9.222;2023-05-16T00:09:19;9.60;99.90
12893;DHT22;6514;48.606;9.222;2023-05-16T00:11:47;9.50;99.90
12893;DHT22;6514;48.606;9.222;2023-05-16T00:14:14;9.50;99.90
12893;DHT22;6514;48.606;9.222;2023-05-16T00:16:41;9.50;99.90
12893;DHT22;6514;48.606;9.222;2023-05-16T00:19:08;9.40;99.90
12893;DHT22;6514;48.606;9.222;2023-05-16T00:21:35;9.40;99.90
12893;DHT22;6514;48.606;9.222;2023-05-16T00:24:03;9.40;99.90
12893;DHT22;6514;48.606;9.222;2023-05-16T00:26:30;9.30;99.90
12893;DHT22;6514;48.606;9.222;2023-05-16T00:28:58;9.20;99.90
12893;DHT22;6514;48.606;9.222;2023-05-16T00:31:25;9.30;99.90
12893;DHT22;6514;48.606;9.222;2023-05-16T00:33:52;9.20;99.90
12893;DHT22;6514;48.606;9.222;2023-05-16T00:36:19;9.30;99.90
12893;DHT22;6514;48.606;9.222;2023-05-16T00:38:46;9.30;99.90
12893;DHT22;6514;48.606;9.222;2023-05-16T00:41:13;9.30;99.90
12893;DHT22;6514;48.606;9.222;2023-05-16T00:43:40;9.30;99.90
12893;DHT22;6514;48.606;9.222;2023-05-16T00:46:08;9.30;99.90
12893;DHT22;6514;48.606;9.222;2023-05-16T00:48:35;9.30;99.90
12893;DHT22;6514;48.606;9.222;2023-05-16T00:51:02;9.30;99.90
12893;DHT22;6514;48.606;9.222;2023-05-16T00:53:33;9.30;99.90
12893;DHT22;6514;48.606;9.222;2023-05-16T00:56:01;9.40;99.90
12893;DHT22;6514;48.606;9.222;2023-05-16T00:58:29;9.60;99.90
12893;DHT22;6514;48.606;9.222;2023-05-16T01:00:56;9.40;99.90
12893;DHT22;6514;48.606;9.222;2023-05-16T01:03:25;9.50;99.90
12893;DHT22;6514;48.606;9.222;2023-05-16T01:05:52;9.50;99.90
12893;DHT22;6514;48.606;9.222;2023-05-16T01:08:19;9.50;99.90
12893;DHT22;6514;48.606;9.222;2023-05-16T01:10:52;9.50;99.90
12893;DHT22;6514;48.606;9.222;2023-05-16T01:13:28;9.50;99.90
12893;DHT22;6514;48.606;9.222;2023-05-16T01:16:03;9.50;99.90
12893;DHT22;6514;48.606;9.222;2023-05-16T01:18:36;9.50;99.90
12893;DHT22;6514;48.606;9.222;2023-05-16T01:21:11;9.60;99.90
12893;DHT22;6514;48.606;9.222;2023-05-16T01:23:48;9.60;99.90
12893;DHT22;6514;48.606;9.222;2023-05-16T01:26:19;9.70;99.90
12893;DHT22;6514;48.606;9.222;2023-05-16T01:28:47;9.60;99.90
12893;DHT22;6514;48.606;9.222;2023-05-16T01:31:14;9.60;99.90
12893;DHT22;6514;48.606;9.222;2023-05-16T01:33:42;9.70;99.90
12893;DHT22;6514;48.606;9.222;2023-05-16T01:36:16;9.70;99.90
12893;DHT22;6514;48.606;9.222;2023-05-16T01:39:00;9.60;99.90
12893;DHT22;6514;48.606;9.222;2023-05-16T01:41:38;9.60;99.90
12893;DHT22;6514;48.606;9.222;2023-05-16T01:44:10;9.60;99.90
12893;DHT22;6514;48.606;9.222;2023-05-16T01:46:44;9.70;99.90
12893;DHT22;6514;48.606;9.222;2023-05-16T01:49:15;9.70;99.90
12893;DHT22;6514;48.606;9.222;2023-05-16T01:51:44;9.70;99.90
12893;DHT22;6514;48.606;9.222;2023-05-16T01:54:17;9.70;99.90
12893;DHT22;6514;48.606;9.222;2023-05-16T01:56:50;9.70;99.90
12893;DHT22;6514;48.606;9.222;2023-05-16T01:59:18;9.70;99.90
12893;DHT22;6514;48.606;9.222;2023-05-16T02:01:46;9.70;99.90
12893;DHT22;6514;48.606;9.222;2023-05-16T02:04:12;9.70;99.90
12893;DHT22;6514;48.606;9.222;2023-05-16T02:06:40;9.80;99.90
12893;DHT22;6514;48.606;9.222;2023-05-16T02:09:07;9.80;99.90
12893;DHT22;6514;48.606;9.222;2023-05-16T02:11:34;9.80;99.90
12893;DHT22;6514;48.606;9.222;2023-05-16T02:14:03;9.90;99.90
12893;DHT22;6514;48.606;9.222;2023-05-16T02:16:30;9.90;99.90
12893;DHT22;6514;48.606;9.222;2023-05-16T02:18:56;9.90;99.90
12893;DHT22;6514;48.606;9.222;2023-05-16T02:21:23;9.90;99.90
12893;DHT22;6514;48.606;9.222;2023-05-16T02:23:50;9.90;99.90
12893;DHT22;6514;48.606;9.222;2023-05-16T02:26:17;10.00;99.90
12893;DHT22;6514;48.606;9.222;2023-05-16T02:28:44;10.00;99.90
12893;DHT22;6514;48.606;9.222;2023-05-16T02:31:24;10.00;99.90
12893;DHT22;6514;48.606;9.222;2023-05-16T02:33:51;10.00;99.90
12893;DHT22;6514;48.606;9.222;2023-05-16T02:36:18;10.00;99.90
12893;DHT22;6514;48.606;9.222;2023-05-16T02:38:45;10.00;99.90
12893;DHT22;6514;48.606;9.222;2023-05-16T02:41:12;10.00;99.90
12893;DHT22;6514;48.606;9.222;2023-05-16T02:43:39;10.00;99.90
12893;DHT22;6514;48.606;9.222;2023-05-16T02:46:21;10.10;99.90
12893;DHT22;6514;48.606;9.222;2023-05-16T02:48:48;10.10;99.90
12893;DHT22;6514;48.606;9.222;2023-05-16T02:51:14;10.10;99.90
12893;DHT22;6514;48.606;9.222;2023-05-16T02:53:41;10.10;99.90
12893;DHT22;6514;48.606;9.222;2023-05-16T02:56:08;10.20;99.90
12893;DHT22;6514;48.606;9.222;2023-05-16T02:58:35;10.20;99.90
12893;DHT22;6514;48.606;9.222;2023-05-16T03:01:02;10.20;99.90
12893;DHT22;6514;48.606;9.222;2023-05-16T03:03:30;10.20;99.90
12893;DHT22;6514;48.606;9.222;2023-05-16T03:05:57;10.30;99.90
12893;DHT22;6514;48.606;9.222;2023-05-16T03:08:24;10.30;99.90
12893;DHT22;6514;48.606;9.222;2023-05-16T03:10:51;10.30;99.90
12893;DHT22;6514;48.606;9.222;2023-05-16T03:13:18;10.30;99.90
12893;DHT22;6514;48.606;9.222;2023-05-16T03:15:45;10.40;99.90
12893;DHT22;6514;48.606;9.222;2023-05-16T03:18:12;10.40;99.90
12893;DHT22;6514;48.606;9.222;2023-05-16T03:20:40;10.30;99.90
12893;DHT22;6514;48.606;9.222;2023-05-16T03:23:07;10.30;99.90
12893;DHT22;6514;48.606;9.222;2023-05-16T03:25:34;10.30;99.90
12893;DHT22;6514;48.606;9.222;2023-05-16T03:28:01;10.30;99.90
12893;DHT22;6514;48.606;9.222;2023-05-16T03:30:28;10.30;99.90
12893;DHT22;6514;48.606;9.222;2023-05-16T03:32:55;10.30;99.90
12893;DHT22;6514;48.606;9.222;2023-05-16T03:35:22;10.20;99.90
12893;DHT22;6514;48.606;9.222;2023-05-16T03:37:51;10.20;99.90
12893;DHT22;6514;48.606;9.222;2023-05-16T03:40:18;10.20;99.90
12893;DHT22;6514;48.606;9.222;2023-05-16T03:42:45;10.20;99.90
12893;DHT22;6514;48.606;9.222;2023-05-16T03:45:11;10.20;99.90
12893;DHT22;6514;48.606;9.222;2023-05-16T03:47:38;10.20;99.90
12893;DHT22;6514;48.606;9.222;2023-05-16T03:50:06;10.20;99.90
12893;DHT22;6514;48.606;9.222;2023-05-16T03:52:34;10.20;99.90
12893;DHT22;6514;48.606;9.222;2023-05-16T03:55:03;10.20;99.90
12893;DHT22;6514;48.606;9.222;2023-05-16T03:57:31;10.20;99.90
12893;DHT22;6514;48.606;9.222;2023-05-16T03:59:58;10.10;99.90
12893;DHT22;6514;48.606;9.222;2023-05-16T04:02:25;10.20;99.90
12893;DHT22;6514;48.606;9.222;2023-05-16T04:04:52;10.10;99.90
12893;DHT22;6514;48.606;9.222;2023-05-16T04:07:19;10.10;99.90
12893;DHT22;6514;48.606;9.222;2023-05-16T04:09:46;10.20;99.90
12893;DHT22;6514;48.606;9.222;2023-05-16T04:12:14;10.20;99.90
12893;DHT22;6514;48.606;9.222;2023-05-16T04:14:41;10.20;99.90
12893;DHT22;6514;48.606;9.222;2023-05-16T04:17:08;10.20;99.90
12893;DHT22;6514;48.606;9.222;2023-05-16T04:19:35;10.20;99.90
12893;DHT22;6514;48.606;9.222;2023-05-16T04:22:02;10.20;99.90
12893;DHT22;6514;48.606;9.222;2023-05-16T04:24:29;10.20;99.90
12893;DHT22;6514;48.606;9.222;2023-05-16T04:26:56;10.30;99.90
12893;DHT22;6514;48.606;9.222;2023-05-16T04:29:24;10.30;99.90
12893;DHT22;6514;48.606;9.222;2023-05-16T04:31:51;10.40;99.90
12893;DHT22;6514;48.606;9.222;2023-05-16T04:34:18;10.40;99.90
12893;DHT22;6514;48.606;9.222;2023-05-16T04:36:45;10.50;99.90
12893;DHT22;6514;48.606;9.222;2023-05-16T04:39:12;10.50;99.90
12893;DHT22;6514;48.606;9.222;2023-05-16T04:41:39;10.60;99.90
12893;DHT22;6514;48.606;9.222;2023-05-16T04:44:05;10.60;99.90
12893;DHT22;6514;48.606;9.222;2023-05-16T04:46:34;10.70;99.90
12893;DHT22;6514;48.606;9.222;2023-05-16T04:49:01;10.70;99.90
12893;DHT22;6514;48.606;9.222;2023-05-16T04:51:28;10.90;99.90
12893;DHT22;6514;48.606;9.222;2023-05-16T04:53:56;10.80;99.90
12893;DHT22;6514;48.606;9.222;2023-05-16T04:56:23;11.00;99.90
12893;DHT22;6514;48.606;9.222;2023-05-16T04:58:51;10.90;99.90
12893;DHT22;6514;48.606;9.222;2023-05-16T05:01:19;11.00;99.90
12893;DHT22;6514;48.606;9.222;2023-05-16T05:03:47;10.90;99.90
12893;DHT22;6514;48.606;9.222;2023-05-16T05:06:14;11.00;99.90
12893;DHT22;6514;48.606;9.222;2023-05-16T05:08:41;11.10;99.90
12893;DHT22;6514;48.606;9.222;2023-05-16T05:11:08;11.10;99.90
12893;DHT22;6514;48.606;9.222;2023-05-16T05:13:34;11.10;99.90
12893;DHT22;6514;48.606;9.222;2023-05-16T05:16:01;11.10;99.90
12893;DHT22;6514;48.606;9.222;2023-05-16T05:18:29;11.20;99.90
12893;DHT22;6514;48.606;9.222;2023-05-16T05:20:57;11.20;99.90
12893;DHT22;6514;48.606;9.222;2023-05-16T05:23:24;11.20;99.90
12893;DHT22;6514;48.606;9.222;2023-05-16T05:25:51;11.30;99.90
12893;DHT22;6514;48.606;9.222;2023-05-16T05:28:18;11.30;99.90
12893;DHT22;6514;48.606;9.222;2023-05-16T05:30:45;11.30;99.90
12893;DHT22;6514;48.606;9.222;2023-05-16T05:33:15;11.40;99.90
12893;DHT22;6514;48.606;9.222;2023-05-16T05:35:42;11.40;99.90
12893;DHT22;6514;48.606;9.222;2023-05-16T05:38:10;11.40;99.90
12893;DHT22;6514;48.606;9.222;2023-05-16T05:40:37;11.50;99.90
12893;DHT22;6514;48.606;9.222;2023-05-16T05:43:04;11.50;99.90
12893;DHT22;6514;48.606;9.222;2023-05-16T05:45:31;11.50;99.90
12893;DHT22;6514;48.606;9.222;2023-05-16T05:47:58;11.50;99.90
12893;DHT22;6514;48.606;9.222;2023-05-16T05:50:24;11.50;99.90
12893;DHT22;6514;48.606;9.222;2023-05-16T05:52:51;11.50;99.90
12893;DHT22;6514;48.606;9.222;2023-05-16T05:55:20;11.50;99.90
12893;DHT22;6514;48.606;9.222;2023-05-16T05:57:47;11.50;99.90
12893;DHT22;6514;48.606;9.222;2023-05-16T06:00:14;11.50;99.90
12893;DHT22;6514;48.606;9.222;2023-05-16T06:02:41;11.50;99.90
12893;DHT22;6514;48.606;9.222;2023-05-16T06:05:08;11.60;99.90
12893;DHT22;6514;48.606;9.222;2023-05-16T06:07:35;11.60;99.90
12893;DHT22;6514;48.606;9.222;2023-05-16T06:10:02;11.60;99.90
12893;DHT22;6514;48.606;9.222;2023-05-16T06:12:31;11.60;99.90
12893;DHT22;6514;48.606;9.222;2023-05-16T06:14:58;11.70;99.90
12893;DHT22;6514;48.606;9.222;2023-05-16T06:17:25;11.70;99.90
12893;DHT22;6514;48.606;9.222;2023-05-16T06:19:51;11.70;99.90
12893;DHT22;6514;48.606;9.222;2023-05-16T06:22:18;11.70;99.90
12893;DHT22;6514;48.606;9.222;2023-05-16T06:24:45;11.80;99.90
12893;DHT22;6514;48.606;9.222;2023-05-16T06:27:12;11.80;99.90
12893;DHT22;6514;48.606;9.222;2023-05-16T06:29:40;11.80;99.90
12893;DHT22;6514;48.606;9.222;2023-05-16T06:32:07;11.80;99.90
12893;DHT22;6514;48.606;9.222;2023-05-16T06:34:34;11.90;99.90
12893;DHT22;6514;48.606;9.222;2023-05-16T06:37:02;12.00;99.90
12893;DHT22;6514;48.606;9.222;2023-05-16T06:39:29;12.00;99.90
12893;DHT22;6514;48.606;9.222;2023-05-16T06:41:56;12.00;99.90
12893;DHT22;6514;48.606;9.222;2023-05-16T06:44:23;12.10;99.90
12893;DHT22;6514;48.606;9.222;2023-05-16T06:46:51;12.10;99.90
12893;DHT22;6514;48.606;9.222;2023-05-16T06:49:18;12.10;99.90
12893;DHT22;6514;48.606;9.222;2023-05-16T06:51:45;12.10;99.90
12893;DHT22;6514;48.606;9.222;2023-05-16T06:54:12;12.10;99.90
12893;DHT22;6514;48.606;9.222;2023-05-16T06:56:38;12.00;99.90
12893;DHT22;6514;48.606;9.222;2023-05-16T06:59:05;12.10;99.90
12893;DHT22;6514;48.606;9.222;2023-05-16T07:01:32;12.10;99.90
12893;DHT22;6514;48.606;9.222;2023-05-16T07:04:01;12.10;99.90
12893;DHT22;6514;48.606;9.222;2023-05-16T07:06:27;12.10;99.90
12893;DHT22;6514;48.606;9.222;2023-05-16T07:08:54;12.10;99.90
12893;DHT22;6514;48.606;9.222;2023-05-16T07:11:21;12.10;99.90
12893;DHT22;6514;48.606;9.222;2023-05-16T07:13:48;12.10;99.90
12893;DHT22;6514;48.606;9.222;2023-05-16T07:16:15;12.10;99.90
12893;DHT22;6514;48.606;9.222;2023-05-16T07:18:42;12.10;99.90
12893;DHT22;6514;48.606;9.222;2023-05-16T07:21:10;12.10;99.90
12893;DHT22;6514;48.606;9.222;2023-05-16T07:23:37;12.10;99.90
12893;DHT22;6514;48.606;9.222;2023-05-16T07:26:04;12.10;99.90
12893;DHT22;6514;48.606;9.222;2023-05-16T07:28:31;11.50;99.90
12893;DHT22;6514;48.606;9.222;2023-05-16T07:30:58;12.00;99.90
12893;DHT22;6514;48.606;9.222;2023-05-16T07:33:25;12.00;99.90
12893;DHT22;6514;48.606;9.222;2023-05-16T07:35:52;11.90;99.90
12893;DHT22;6514;48.606;9.222;2023-05-16T07:38:21;11.90;99.90
12893;DHT22;6514;48.606;9.222;2023-05-16T07:40:48;11.90;99.90
12893;DHT22;6514;48.606;9.222;2023-05-16T07:43:15;11.90;99.90
12893;DHT22;6514;48.606;9.222;2023-05-16T07:45:41;11.90;99.90
12893;DHT22;6514;48.606;9.222;2023-05-16T07:48:08;11.90;99.90
12893;DHT22;6514;48.606;9.222;2023-05-16T07:50:35;11.90;99.90
12893;DHT22;6514;48.606;9.222;2023-05-16T07:53:02;11.90;99.90
12893;DHT22;6514;48.606;9.222;2023-05-16T07:55:30;11.90;99.90
12893;DHT22;6514;48.606;9.222;2023-05-16T07:57:57;11.90;99.90
12893;DHT22;6514;48.606;9.222;2023-05-16T08:00:24;11.90;99.90
12893;DHT22;6514;48.606;9.222;2023-05-16T08:02:51;11.90;99.90
12893;DHT22;6514;48.606;9.222;2023-05-16T08:05:18;11.90;99.90
12893;DHT22;6514;48.606;9.222;2023-05-16T08:07:45;11.90;99.90
12893;DHT22;6514;48.606;9.222;2023-05-16T08:10:12;11.90;99.90
12893;DHT22;6514;48.606;9.222;2023-05-16T08:12:42;11.90;99.90
12893;DHT22;6514;48.606;9.222;2023-05-16T08:15:09;11.90;99.90
12893;DHT22;6514;48.606;9.222;2023-05-16T08:17:36;11.90;99.90
12893;DHT22;6514;48.606;9.222;2023-05-16T08:20:04;11.90;99.90
12893;DHT22;6514;48.606;9.222;2023-05-16T08:22:31;11.90;99.90
12893;DHT22;6514;48.606;9.222;2023-05-16T08:24:58;11.90;99.90
12893;DHT22;6514;48.606;9.222;2023-05-16T08:27:26;11.90;99.90
12893;DHT22;6514;48.606;9.222;2023-05-16T08:29:54;11.90;99.90
12893;DHT22;6514;48.606;9.222;2023-05-16T08:32:21;11.90;99.90
12893;DHT22;6514;48.606;9.222;2023-05-16T08:34:48;11.90;99.90
12893;DHT22;6514;48.606;9.222;2023-05-16T08:37:15;11.90;99.90
12893;DHT22;6514;48.606;9.222;2023-05-16T08:39:42;11.90;99.90
12893;DHT22;6514;48.606;9.222;2023-05-16T08:42:09;11.90;99.90
12893;DHT22;6514;48.606;9.222;2023-05-16T08:44:36;11.90;99.90
12893;DHT22;6514;48.606;9.222;2023-05-16T08:47:10;11.90;99.90
12893;DHT22;6514;48.606;9.222;2023-05-16T08:49:39;11.90;99.90
12893;DHT22;6514;48.606;9.222;2023-05-16T08:52:08;12.00;99.90
12893;DHT22;6514;48.606;9.222;2023-05-16T08:54:35;12.00;99.90
12893;DHT22;6514;48.606;9.222;2023-05-16T08:57:03;12.00;99.90
12893;DHT22;6514;48.606;9.222;2023-05-16T08:59:31;12.00;99.90
12893;DHT22;6514;48.606;9.222;2023-05-16T09:01:58;12.00;99.90
12893;DHT22;6514;48.606;9.222;2023-05-16T09:04:27;12.00;99.90
12893;DHT22;6514;48.606;9.222;2023-05-16T09:06:55;12.00;99.90
12893;DHT22;6514;48.606;9.222;2023-05-16T09:09:22;12.00;99.90
12893;DHT22;6514;48.606;9.222;2023-05-16T09:11:49;12.10;99.90
12893;DHT22;6514;48.606;9.222;2023-05-16T09:14:16;12.10;99.90
12893;DHT22;6514;48.606;9.222;2023-05-16T09:16:44;12.10;99.90
12893;DHT22;6514;48.606;9.222;2023-05-16T09:19:12;12.10;99.90
12893;DHT22;6514;48.606;9.222;2023-05-16T09:21:41;12.10;99.90
12893;DHT22;6514;48.606;9.222;2023-05-16T09:24:08;12.10;99.90
12893;DHT22;6514;48.606;9.222;2023-05-16T09:26:37;12.00;99.90
12893;DHT22;6514;48.606;9.222;2023-05-16T09:29:09;12.00;99.90
12893;DHT22;6514;48.606;9.222;2023-05-16T09:31:37;12.00;99.90
12893;DHT22;6514;48.606;9.222;2023-05-16T09:34:07;12.00;99.90
12893;DHT22;6514;48.606;9.222;2023-05-16T09:36:35;12.00;99.90
12893;DHT22;6514;48.606;9.222;2023-05-16T09:39:05;11.90;99.90
12893;DHT22;6514;48.606;9.222;2023-05-16T09:41:33;11.90;99.90
12893;DHT22;6514;48.606;9.222;2023-05-16T09:44:03;11.80;99.90
12893;DHT22;6514;48.606;9.222;2023-05-16T09:46:32;11.70;99.90
12893;DHT22;6514;48.606;9.222;2023-05-16T09:48:59;11.70;99.90
12893;DHT22;6514;48.606;9.222;2023-05-16T09:51:26;11.70;99.90
12893;DHT22;6514;48.606;9.222;2023-05-16T09:53:53;11.70;99.90
12893;DHT22;6514;48.606;9.222;2023-05-16T09:56:21;11.80;99.90
12893;DHT22;6514;48.606;9.222;2023-05-16T09:58:51;11.70;99.90
12893;DHT22;6514;48.606;9.222;2023-05-16T10:01:18;11.70;99.90
12893;DHT22;6514;48.606;9.222;2023-05-16T10:03:45;11.70;99.90
12893;DHT22;6514;48.606;9.222;2023-05-16T10:06:12;11.70;99.90
12893;DHT22;6514;48.606;9.222;2023-05-16T10:08:42;11.70;99.90
12893;DHT22;6514;48.606;9.222;2023-05-16T10:11:09;11.70;99.90
12893;DHT22;6514;48.606;9.222;2023-05-16T10:13:38;11.70;99.90
12893;DHT22;6514;48.606;9.222;2023-05-16T10:16:07;11.70;99.90
12893;DHT22;6514;48.606;9.222;2023-05-16T10:18:37;11.70;99.90
12893;DHT22;6514;48.606;9.222;2023-05-16T10:21:07;11.70;99.90
12893;DHT22;6514;48.606;9.222;2023-05-16T10:23:37;11.70;99.90
12893;DHT22;6514;48.606;9.222;2023-05-16T10:26:08;11.90;99.90
12893;DHT22;6514;48.606;9.222;2023-05-16T10:28:39;12.00;99.90
12893;DHT22;6514;48.606;9.222;2023-05-16T10:31:07;12.00;99.90
12893;DHT22;6514;48.606;9.222;2023-05-16T10:33:35;12.10;99.90
12893;DHT22;6514;48.606;9.222;2023-05-16T10:36:03;12.10;99.90
12893;DHT22;6514;48.606;9.222;2023-05-16T10:38:31;12.10;99.90
12893;DHT22;6514;48.606;9.222;2023-05-16T10:40:59;12.00;99.90
12893;DHT22;6514;48.606;9.222;2023-05-16T10:43:28;12.00;99.90
12893;DHT22;6514;48.606;9.222;2023-05-16T10:46:03;11.90;99.90
12893;DHT22;6514;48.606;9.222;2023-05-16T10:48:35;11.90;99.90
12893;DHT22;6514;48.606;9.222;2023-05-16T10:51:31;11.90;99.90
12893;DHT22;6514;48.606;9.222;2023-05-16T10:53:52;11.90;99.90
12893;DHT22;6514;48.606;9.222;2023-05-16T10:56:22;11.90;99.90
12893;DHT22;6514;48.606;9.222;2023-05-16T10:58:49;11.90;99.90
12893;DHT22;6514;48.606;9.222;2023-05-16T11:01:26;11.80;99.90
12893;DHT22;6514;48.606;9.222;2023-05-16T11:04:01;11.90;99.90
12893;DHT22;6514;48.606;9.222;2023-05-16T11:06:29;11.90;99.90
12893;DHT22;6514;48.606;9.222;2023-05-16T11:09:03;11.90;99.90
12893;DHT22;6514;48.606;9.222;2023-05-16T11:11:40;11.90;99.90
12893;DHT22;6514;48.606;9.222;2023-05-16T11:14:08;11.90;99.90
12893;DHT22;6514;48.606;9.222;2023-05-16T11:16:47;11.90;99.90
12893;DHT22;6514;48.606;9.222;2023-05-16T11:19:28;11.90;99.90
12893;DHT22;6514;48.606;9.222;2023-05-16T11:22:08;11.90;99.90
12893;DHT22;6514;48.606;9.222;2023-05-16T11:24:37;11.90;99.90
12893;DHT22;6514;48.606;9.222;2023-05-16T11:27:05;11.90;99.90
12893;DHT22;6514;48.606;9.222;2023-05-16T11:29:33;11.90;99.90
12893;DHT22;6514;48.606;9.222;2023-05-16T11:32:03;11.90;99.90
12893;DHT22;6514;48.606;9.222;2023-05-16T11:34:31;12.00;99.90
12893;DHT22;6514;48.606;9.222;2023-05-16T11:36:58;12.00;99.90
12893;DHT22;6514;48.606;9.222;2023-05-16T11:39:28;12.10;99.90
12893;DHT22;6514;48.606;9.222;2023-05-16T11:41:55;12.10;99.90
12893;DHT22;6514;48.606;9.222;2023-05-16T11:44:25;12.10;99.90
12893;DHT22;6514;48.606;9.222;2023-05-16T11:46:52;12.10;99.90
12893;DHT22;6514;48.606;9.222;2023-05-16T11:49:21;12.10;99.90
12893;DHT22;6514;48.606;9.222;2023-05-16T11:51:48;12.10;99.90
12893;DHT22;6514;48.606;9.222;2023-05-16T11:54:17;12.10;99.90
12893;DHT22;6514;48.606;9.222;2023-05-16T11:56:44;12.10;99.90
12893;DHT22;6514;48.606;9.222;2023-05-16T11:59:12;12.10;99.90
12893;DHT22;6514;48.606;9.222;2023-05-16T12:01:40;12.10;99.90
12893;DHT22;6514;48.606;9.222;2023-05-16T12:04:07;12.10;99.90
12893;DHT22;6514;48.606;9.222;2023-05-16T12:06:38;12.10;99.90
12893;DHT22;6514;48.606;9.222;2023-05-16T12:09:10;12.10;99.90
12893;DHT22;6514;48.606;9.222;2023-05-16T12:11:39;12.10;99.90
12893;DHT22;6514;48.606;9.222;2023-05-16T12:14:07;12.10;99.90
12893;DHT22;6514;48.606;9.222;2023-05-16T12:16:34;12.10;99.90
12893;DHT22;6514;48.606;9.222;2023-05-16T12:19:02;12.10;99.90
12893;DHT22;6514;48.606;9.222;2023-05-16T12:21:31;12.00;99.90
12893;DHT22;6514;48.606;9.222;2023-05-16T12:23:59;12.00;99.90
12893;DHT22;6514;48.606;9.222;2023-05-16T12:26:28;12.00;99.90
12893;DHT22;6514;48.606;9.222;2023-05-16T12:28:56;12.00;99.90
12893;DHT22;6514;48.606;9.222;2023-05-16T12:31:25;11.90;99.90
12893;DHT22;6514;48.606;9.222;2023-05-16T12:33:53;11.90;99.90
12893;DHT22;6514;48.606;9.222;2023-05-16T12:36:21;11.90;99.90
12893;DHT22;6514;48.606;9.222;2023-05-16T12:38:48;11.90;99.90
12893;DHT22;6514;48.606;9.222;2023-05-16T12:41:21;11.80;99.90
12893;DHT22;6514;48.606;9.222;2023-05-16T12:43:48;11.90;99.90
12893;DHT22;6514;48.606;9.222;2023-05-16T12:46:16;11.90;99.90
12893;DHT22;6514;48.606;9.222;2023-05-16T12:48:45;11.90;99.90
12893;DHT22;6514;48.606;9.222;2023-05-16T12:51:15;12.00;99.90
12893;DHT22;6514;48.606;9.222;2023-05-16T12:53:43;12.10;99.90
12893;DHT22;6514;48.606;9.222;2023-05-16T12:56:11;12.10;99.90
12893;DHT22;6514;48.606;9.222;2023-05-16T12:58:41;12.20;99.90
12893;DHT22;6514;48.606;9.222;2023-05-16T13:01:08;12.10;99.90
12893;DHT22;6514;48.606;9.222;2023-05-16T13:03:35;12.10;99.90
12893;DHT22;6514;48.606;9.222;2023-05-16T13:06:03;12.10;99.90
12893;DHT22;6514;48.606;9.222;2023-05-16T13:08:30;12.10;99.90
12893;DHT22;6514;48.606;9.222;2023-05-16T13:10:57;12.00;99.90
12893;DHT22;6514;48.606;9.222;2023-05-16T13:13:24;12.00;99.90
12893;DHT22;6514;48.606;9.222;2023-05-16T13:15:52;12.10;99.90
12893;DHT22;6514;48.606;9.222;2023-05-16T13:18:19;12.10;99.90
12893;DHT22;6514;48.606;9.222;2023-05-16T13:20:46;12.20;99.90
12893;DHT22;6514;48.606;9.222;2023-05-16T13:23:14;12.20;99.90
12893;DHT22;6514;48.606;9.222;2023-05-16T13:25:41;12.30;99.90
12893;DHT22;6514;48.606;9.222;2023-05-16T13:28:08;12.30;99.90
12893;DHT22;6514;48.606;9.222;2023-05-16T13:30:35;12.30;99.90
12893;DHT22;6514;48.606;9.222;2023-05-16T13:33:04;12.40;99.90
12893;DHT22;6514;48.606;9.222;2023-05-16T13:35:31;12.50;99.90
12893;DHT22;6514;48.606;9.222;2023-05-16T13:37:57;12.60;99.90
12893;DHT22;6514;48.606;9.222;2023-05-16T13:40:25;12.60;99.90
12893;DHT22;6514;48.606;9.222;2023-05-16T13:42:52;12.60;99.90
12893;DHT22;6514;48.606;9.222;2023-05-16T13:45:19;12.60;99.90
12893;DHT22;6514;48.606;9.222;2023-05-16T13:47:46;12.50;99.90
12893;DHT22;6514;48.606;9.222;2023-05-16T13:50:14;12.40;99.90
12893;DHT22;6514;48.606;9.222;2023-05-16T13:52:41;12.40;99.90
12893;DHT22;6514;48.606;9.222;2023-05-16T13:55:09;12.30;99.90
12893;DHT22;6514;48.606;9.222;2023-05-16T13:57:35;12.30;99.90
12893;DHT22;6514;48.606;9.222;2023-05-16T14:00:03;12.30;99.90
12893;DHT22;6514;48.606;9.222;2023-05-16T14:02:37;12.40;99.90
12893;DHT22;6514;48.606;9.222;2023-05-16T14:05:04;12.40;99.90
12893;DHT22;6514;48.606;9.222;2023-05-16T14:07:32;12.40;99.90
12893;DHT22;6514;48.606;9.222;2023-05-16T14:10:00;12.40;99.90
12893;DHT22;6514;48.606;9.222;2023-05-16T14:12:28;12.40;99.90
12893;DHT22;6514;48.606;9.222;2023-05-16T14:14:55;12.50;99.90
12893;DHT22;6514;48.606;9.222;2023-05-16T14:17:22;12.60;99.90
12893;DHT22;6514;48.606;9.222;2023-05-16T14:19:49;12.60;99.90
12893;DHT22;6514;48.606;9.222;2023-05-16T14:22:17;12.60;99.90
12893;DHT22;6514;48.606;9.222;2023-05-16T14:24:45;12.60;99.90
12893;DHT22;6514;48.606;9.222;2023-05-16T14:27:12;12.60;99.90
12893;DHT22;6514;48.606;9.222;2023-05-16T14:29:41;12.50;99.90
12893;DHT22;6514;48.606;9.222;2023-05-16T14:32:09;12.50;99.90
12893;DHT22;6514;48.606;9.222;2023-05-16T14:34:36;12.40;99.90
12893;DHT22;6514;48.606;9.222;2023-05-16T14:37:03;12.30;99.90
12893;DHT22;6514;48.606;9.222;2023-05-16T14:39:30;12.30;99.90
12893;DHT22;6514;48.606;9.222;2023-05-16T14:41:58;12.20;99.90
12893;DHT22;6514;48.606;9.222;2023-05-16T14:44:25;12.10;99.90
12893;DHT22;6514;48.606;9.222;2023-05-16T14:46:52;12.10;99.90
12893;DHT22;6514;48.606;9.222;2023-05-16T14:49:19;12.00;99.90
12893;DHT22;6514;48.606;9.222;2023-05-16T14:51:46;11.90;99.90
12893;DHT22;6514;48.606;9.222;2023-05-16T14:54:15;11.90;99.90
12893;DHT22;6514;48.606;9.222;2023-05-16T14:56:42;11.90;99.90
12893;DHT22;6514;48.606;9.222;2023-05-16T14:59:10;11.90;99.90
12893;DHT22;6514;48.606;9.222;2023-05-16T15:01:37;11.90;99.90
12893;DHT22;6514;48.606;9.222;2023-05-16T15:04:04;11.90;99.90
12893;DHT22;6514;48.606;9.222;2023-05-16T15:06:31;11.80;99.90
12893;DHT22;6514;48.606;9.222;2023-05-16T15:08:58;11.80;99.90
12893;DHT22;6514;48.606;9.222;2023-05-16T15:11:27;11.70;99.90
12893;DHT22;6514;48.606;9.222;2023-05-16T15:13:54;11.80;99.90
12893;DHT22;6514;48.606;9.222;2023-05-16T15:16:23;11.80;99.90
12893;DHT22;6514;48.606;9.222;2023-05-16T15:18:50;11.80;99.90
12893;DHT22;6514;48.606;9.222;2023-05-16T15:21:17;11.80;99.90
12893;DHT22;6514;48.606;9.222;2023-05-16T15:23:44;11.90;99.90
12893;DHT22;6514;48.606;9.222;2023-05-16T15:26:11;11.90;99.90
12893;DHT22;6514;48.606;9.222;2023-05-16T15:28:38;11.90;99.90
12893;DHT22;6514;48.606;9.222;2023-05-16T15:31:05;12.00;99.90
12893;DHT22;6514;48.606;9.222;2023-05-16T15:33:33;12.00;99.90
12893;DHT22;6514;48.606;9.222;2023-05-16T15:36:00;12.00;99.90
12893;DHT22;6514;48.606;9.222;2023-05-16T15:38:27;12.00;99.90
12893;DHT22;6514;48.606;9.222;2023-05-16T15:40:54;12.10;99.90
12893;DHT22;6514;48.606;9.222;2023-05-16T15:43:21;12.10;99.90
12893;DHT22;6514;48.606;9.222;2023-05-16T15:45:48;12.10;99.90
12893;DHT22;6514;48.606;9.222;2023-05-16T15:48:16;12.10;99.90
12893;DHT22;6514;48.606;9.222;2023-05-16T15:50:44;12.10;99.90
12893;DHT22;6514;48.606;9.222;2023-05-16T15:53:11;12.10;99.90